createdAt,value
2023-04-12T00:01:33.476Z,99251.88
2023-04-12T00:04:00.698Z,99252.50
2023-04-12T00:06:28.376Z,99256.63
2023-04-12T00:08:55.281Z,99257.06
2023-04-12T00:11:23.458Z,99252.72
2023-04-12T00:13:50.560Z,99250.91
2023-04-12T00:16:17.512Z,99248.72
2023-04-12T00:18:46.462Z,99251.97
2023-04-12T00:21:14.034Z,99242.34
2023-04-12T00:23:41.178Z,99247.41
2023-04-12T00:26:08.325Z,99242.69
2023-04-12T00:28:35.440Z,99247.66
2023-04-12T00:31:02.927Z,99241.34
2023-04-12T00:33:29.820Z,99237.53
2023-04-12T00:36:00.308Z,99242.38
2023-04-12T00:38:27.319Z,99238.72
2023-04-12T00:40:54.294Z,99236.88
2023-04-12T00:43:21.811Z,99236.47
2023-04-12T00:45:49.711Z,99231.50
2023-04-12T00:48:17.028Z,99233.56
2023-04-12T00:50:44.142Z,99227.72
2023-04-12T00:53:14.536Z,99230.66
2023-04-12T00:55:44.658Z,99221.22
2023-04-12T00:58:11.707Z,99217.75
2023-04-12T01:00:38.570Z,99216.28
2023-04-12T01:03:06.979Z,99217.53
2023-04-12T01:05:43.614Z,99216.28
2023-04-12T01:08:23.875Z,99215.47
2023-04-12T01:11:03.657Z,99216.97
2023-04-12T01:13:41.688Z,99208.47
2023-04-12T01:16:18.088Z,99213.66
2023-04-12T01:18:52.268Z,99211.19
2023-04-12T01:21:31.231Z,99200.22
2023-04-12T01:24:26.107Z,99202.13
2023-04-12T01:26:56.067Z,99203.16
2023-04-12T01:29:30.052Z,99198.63
2023-04-12T01:32:01.731Z,99197.00
2023-04-12T01:34:33.279Z,99186.88
2023-04-12T01:37:03.664Z,99194.75
2023-04-12T01:39:33.615Z,99187.28
2023-04-12T01:42:00.830Z,99182.53
2023-04-12T01:44:30.034Z,99183.34
2023-04-12T01:46:57.185Z,99173.84
2023-04-12T01:49:39.312Z,99177.13
2023-04-12T01:52:13.940Z,99173.63
2023-04-12T01:54:44.654Z,99175.69
2023-04-12T01:57:14.937Z,99166.19
2023-04-12T01:59:46.458Z,99166.19
2023-04-12T02:02:18.682Z,99152.38
2023-04-12T02:04:47.747Z,99144.25
2023-04-12T02:07:17.050Z,99131.47
2023-04-12T02:09:45.351Z,99115.34
2023-04-12T02:12:12.436Z,99110.41
2023-04-12T02:14:39.574Z,99107.91
2023-04-12T02:17:07.924Z,99115.16
2023-04-12T02:19:34.871Z,99101.28
2023-04-12T02:22:01.892Z,99098.59
2023-04-12T02:24:29.554Z,99097.31
2023-04-12T02:26:58.555Z,99092.31
2023-04-12T02:29:25.574Z,99087.53
2023-04-12T02:31:52.599Z,99078.66
2023-04-12T02:34:21.828Z,99088.78
2023-04-12T02:36:56.054Z,99080.28
2023-04-12T02:39:23.097Z,99076.59
2023-04-12T02:41:51.916Z,99071.00
2023-04-12T02:44:19.070Z,99067.03
2023-04-12T02:47:05.473Z,99062.09
2023-04-12T02:49:35.280Z,99059.59
2023-04-12T02:52:03.021Z,99051.75
2023-04-12T02:54:39.295Z,99053.44
2023-04-12T02:57:08.430Z,99043.91
2023-04-12T02:59:39.853Z,99049.69
2023-04-12T03:02:15.225Z,99038.13
2023-04-12T03:04:43.502Z,99040.63
2023-04-12T03:12:15.649Z,99015.78
2023-04-12T03:15:39.024Z,99018.03
2023-04-12T03:18:07.104Z,99014.38
2023-04-12T03:20:47.501Z,99008.75
2023-04-12T03:23:15.281Z,99009.00
2023-04-12T03:25:49.573Z,99000.47
2023-04-12T03:28:34.835Z,99001.34
2023-04-12T03:31:05.348Z,98992.84
2023-04-12T03:33:46.721Z,98983.44
2023-04-12T03:36:24.141Z,98975.94
2023-04-12T03:39:14.025Z,98969.78
2023-04-12T03:41:41.005Z,98968.53
2023-04-12T03:44:08.554Z,98956.97
2023-04-12T03:46:36.445Z,98960.31
2023-04-12T03:49:07.928Z,98963.78
2023-04-12T03:51:36.684Z,98949.06
2023-04-12T03:54:04.046Z,98953.44
2023-04-12T03:56:40.040Z,98948.84
2023-04-12T03:59:13.112Z,98946.00
2023-04-12T04:01:41.753Z,98932.34
2023-04-12T04:04:09.221Z,98922.41
2023-04-12T04:06:37.713Z,98929.66
2023-04-12T04:09:05.637Z,98920.75
2023-04-12T04:11:35.478Z,98939.56
2023-04-12T04:14:08.233Z,98916.38
2023-04-12T04:16:36.039Z,98910.63
2023-04-12T04:19:05.324Z,98902.16
2023-04-12T04:21:33.550Z,98899.91
2023-04-12T04:24:02.051Z,98896.38
2023-04-12T04:26:35.121Z,98892.25
2023-04-12T04:29:09.471Z,98887.72
2023-04-12T04:32:04.621Z,98873.22
2023-04-12T04:34:32.884Z,98880.31
2023-04-12T04:37:09.781Z,98872.22
2023-04-12T04:39:39.174Z,98872.03
2023-04-12T04:42:06.883Z,98874.50
2023-04-12T04:44:45.421Z,98869.13
2023-04-12T04:47:12.365Z,98865.78
2023-04-12T04:49:39.266Z,98857.09
2023-04-12T04:52:19.505Z,98868.91
2023-04-12T04:54:49.429Z,98857.31
2023-04-12T04:57:16.487Z,98859.56
2023-04-12T04:59:43.773Z,98850.47
2023-04-12T05:02:15.343Z,98853.16
2023-04-12T05:04:42.562Z,98847.34
2023-04-12T05:07:12.046Z,98846.69
2023-04-12T05:09:39.103Z,98847.53
2023-04-12T05:12:07.720Z,98851.03
2023-04-12T05:14:46.735Z,98838.63
2023-04-12T05:17:14.853Z,98842.97
2023-04-12T05:19:43.795Z,98836.75
2023-04-12T05:22:10.773Z,98842.19
2023-04-12T05:24:56.903Z,98834.09
2023-04-12T05:27:29.682Z,98829.56
2023-04-12T05:29:58.514Z,98827.09
2023-04-12T05:32:26.382Z,98833.09
2023-04-12T05:34:54.044Z,98823.13
2023-04-12T05:37:24.910Z,98822.56
2023-04-12T05:39:53.531Z,98823.34
2023-04-12T05:42:20.377Z,98809.25
2023-04-12T05:44:49.893Z,98806.56
2023-04-12T05:47:17.764Z,98802.03
2023-04-12T05:49:44.929Z,98800.41
2023-04-12T05:52:12.589Z,98790.00
2023-04-12T05:54:40.100Z,98777.63
2023-04-12T05:57:09.236Z,98783.59
2023-04-12T05:59:36.085Z,98777.53
2023-04-12T06:02:04.776Z,98775.47
2023-04-12T06:04:46.835Z,98760.16
2023-04-12T06:07:17.109Z,98759.28
2023-04-12T06:09:44.408Z,98745.41
2023-04-12T06:12:12.266Z,98743.25
2023-04-12T06:14:40.435Z,98739.72
2023-04-12T06:17:10.626Z,98727.34
2023-04-12T06:19:37.539Z,98731.44
2023-04-12T06:22:04.633Z,98727.88
2023-04-12T06:24:32.672Z,98711.09
2023-04-12T06:26:59.660Z,98712.13
2023-04-12T06:29:26.637Z,98720.59
2023-04-12T06:31:53.562Z,98711.47
2023-04-12T06:34:22.747Z,98692.81
2023-04-12T06:36:50.656Z,98681.81
2023-04-12T06:40:09.272Z,98688.22
2023-04-12T06:42:36.676Z,98677.09
2023-04-12T06:45:04.531Z,98677.63
2023-04-12T06:47:33.734Z,98666.63
2023-04-12T06:50:01.979Z,98660.34
2023-04-12T06:52:29.019Z,98673.59
2023-04-12T06:54:56.383Z,98656.88
2023-04-12T06:57:23.303Z,98644.88
2023-04-12T06:59:50.327Z,98644.03
2023-04-12T07:02:56.383Z,98636.56
2023-04-12T07:05:25.544Z,98659.13
2023-04-12T07:07:52.898Z,98632.22
2023-04-12T07:10:21.904Z,98632.81
2023-04-12T07:12:48.774Z,98626.38
2023-04-12T07:15:15.960Z,98617.72
2023-04-12T07:17:42.830Z,98624.75
2023-04-12T07:20:11.494Z,98612.91
2023-04-12T07:22:40.207Z,98608.50
2023-04-12T07:25:08.207Z,98613.69
2023-04-12T07:27:34.997Z,98608.19
2023-04-12T07:30:02.078Z,98612.06
2023-04-12T07:32:29.031Z,98608.09
2023-04-12T07:34:56.269Z,98593.13
2023-04-12T07:37:23.526Z,98593.13
2023-04-12T07:39:51.759Z,98589.59
2023-04-12T07:42:18.779Z,98581.19
2023-04-12T07:44:45.890Z,98582.38
2023-04-12T07:47:12.957Z,98576.75
2023-04-12T07:49:39.982Z,98571.28
2023-04-12T07:52:06.950Z,98573.38
2023-04-12T07:55:14.843Z,98554.75
2023-04-12T07:57:42.232Z,98553.72
2023-04-12T08:00:10.956Z,98545.28
2023-04-12T08:02:43.131Z,98542.13
2023-04-12T08:05:10.604Z,98531.59
2023-04-12T08:07:38.730Z,98522.22
2023-04-12T08:10:08.031Z,98517.06
2023-04-12T08:12:36.777Z,98506.75
2023-04-12T08:15:04.445Z,98510.84
2023-04-12T08:17:31.519Z,98510.59
2023-04-12T08:19:58.475Z,98497.84
2023-04-12T08:22:25.569Z,98492.78
2023-04-12T08:24:52.619Z,98492.31
2023-04-12T08:27:19.788Z,98484.81
2023-04-12T08:29:48.192Z,98497.59
2023-04-12T08:32:15.212Z,98499.94
2023-04-12T08:34:44.864Z,98492.41
2023-04-12T08:37:13.201Z,98504.47
2023-04-12T08:39:40.812Z,98506.84
2023-04-12T08:42:08.918Z,98506.84
2023-04-12T08:44:41.836Z,98502.16
2023-04-12T08:47:13.640Z,98505.31
2023-04-12T08:49:41.471Z,98498.84
2023-04-12T08:52:10.350Z,98500.34
2023-04-12T08:54:38.448Z,98484.53
2023-04-12T08:57:08.210Z,98477.59
2023-04-12T08:59:39.884Z,98483.81
2023-04-12T09:02:08.860Z,98471.00
2023-04-12T09:04:49.044Z,98465.44
2023-04-12T09:07:17.006Z,98452.78
2023-04-12T09:09:45.960Z,98456.16
2023-04-12T09:12:14.719Z,98458.13
2023-04-12T09:14:43.364Z,98452.56
2023-04-12T09:17:23.386Z,98445.19
2023-04-12T09:19:53.272Z,98450.53
2023-04-12T09:22:32.933Z,98458.41
2023-04-12T09:24:59.871Z,98442.97
2023-04-12T09:27:27.715Z,98453.09
2023-04-12T09:30:07.486Z,98440.66
2023-04-12T09:32:34.965Z,98431.34
2023-04-12T09:35:04.732Z,98425.44
2023-04-12T09:37:32.112Z,98432.06
2023-04-12T09:40:02.439Z,98436.91
2023-04-12T09:42:33.721Z,98433.69
2023-04-12T09:45:19.710Z,98436.16
2023-04-12T09:47:47.358Z,98427.50
2023-04-12T09:50:22.941Z,98425.59
2023-04-12T09:52:51.062Z,98425.75
2023-04-12T09:55:20.933Z,98412.34
2023-04-12T09:57:52.589Z,98411.09
2023-04-12T10:00:46.860Z,98407.25
2023-04-12T10:03:21.849Z,98405.00
2023-04-12T10:05:50.494Z,98419.91
2023-04-12T10:08:18.852Z,98409.50
2023-04-12T10:10:46.150Z,98405.03
2023-04-12T10:13:15.690Z,98396.09
2023-04-12T10:15:47.083Z,98390.28
2023-04-12T10:18:18.751Z,98394.94
2023-04-12T10:20:46.934Z,98385.81
2023-04-12T10:23:22.098Z,98386.72
2023-04-12T10:25:50.470Z,98382.75
2023-04-12T10:28:20.790Z,98376.19
2023-04-12T10:30:49.358Z,98372.09
2023-04-12T10:33:27.055Z,98375.56
2023-04-12T10:36:00.271Z,98373.47
2023-04-12T10:38:44.617Z,98365.31
2023-04-12T10:41:16.745Z,98367.00
2023-04-12T11:04:13.583Z,98333.38
2023-04-12T11:06:55.373Z,98333.72
2023-04-12T11:09:42.965Z,98326.00
2023-04-12T11:12:15.888Z,98322.50
2023-04-12T11:14:48.684Z,98326.34
2023-04-12T11:17:24.357Z,98321.19
2023-04-12T11:19:58.033Z,98319.25
2023-04-12T11:22:31.178Z,98316.06
2023-04-12T11:25:02.534Z,98313.31
2023-04-12T11:27:30.706Z,98313.06
2023-04-12T11:29:59.940Z,98309.28
2023-04-12T11:32:29.426Z,98315.53
2023-04-12T11:34:58.949Z,98300.66
2023-04-12T11:37:31.006Z,98290.56
2023-04-12T11:39:59.079Z,98284.72
2023-04-12T11:42:27.588Z,98287.22
2023-04-12T11:45:00.245Z,98285.31
2023-04-12T11:47:32.159Z,98284.78
2023-04-12T11:50:00.551Z,98284.78
2023-04-12T11:52:30.133Z,98295.63
2023-04-12T11:55:01.087Z,98292.13
2023-04-12T11:57:29.121Z,98289.41
2023-04-12T12:00:01.577Z,98288.34
2023-04-12T12:02:32.841Z,98283.72
2023-04-12T12:09:11.604Z,98258.47
2023-04-12T12:11:38.782Z,98255.22
2023-04-12T12:14:05.846Z,98261.19
2023-04-12T12:16:32.979Z,98260.13
2023-04-12T12:19:04.618Z,98264.72
2023-04-12T12:21:31.470Z,98255.47
2023-04-12T12:24:25.300Z,98249.25
2023-04-12T12:26:52.220Z,98254.16
2023-04-12T12:29:19.265Z,98253.88
2023-04-12T12:31:47.446Z,98249.81
2023-04-12T12:34:16.009Z,98247.88
2023-04-12T12:36:43.169Z,98254.72
2023-04-12T12:42:59.859Z,98242.22
2023-04-12T12:45:29.347Z,98246.56
2023-04-12T12:47:59.814Z,98233.50
2023-04-12T12:50:30.159Z,98225.88
2023-04-12T12:52:58.723Z,98230.19
2023-04-12T12:55:28.536Z,98211.72
2023-04-12T13:00:29.466Z,98223.16
2023-04-12T13:02:56.631Z,98225.31
2023-04-12T13:05:25.198Z,98229.38
2023-04-12T13:07:53.004Z,98214.97
2023-04-12T13:10:19.944Z,98214.09
2023-04-12T13:12:47.025Z,98207.81
2023-04-12T13:15:22.028Z,98205.66
2023-04-12T13:17:53.553Z,98205.66
2023-04-12T13:20:21.248Z,98197.53
2023-04-12T13:22:48.647Z,98193.44
2023-04-12T13:25:15.738Z,98194.81
2023-04-12T13:27:42.642Z,98194.50
2023-04-12T13:30:35.678Z,98193.16
2023-04-12T13:33:04.352Z,98200.22
2023-04-12T13:35:31.964Z,98192.09
2023-04-12T13:37:59.115Z,98194.00
2023-04-12T13:40:28.070Z,98191.84
2023-04-12T13:42:55.278Z,98186.44
2023-04-12T13:45:23.302Z,98190.50
2023-04-12T13:47:53.880Z,98182.84
2023-04-12T13:50:22.737Z,98163.19
2023-04-12T13:52:49.732Z,98180.00
2023-04-12T13:55:17.224Z,98173.66
2023-04-12T13:57:49.219Z,98171.50
2023-04-12T14:00:19.994Z,98164.91
2023-04-12T14:02:47.112Z,98149.88
2023-04-12T14:05:14.285Z,98151.69
2023-04-12T14:07:42.693Z,98141.78
2023-04-12T14:10:10.856Z,98143.56
2023-04-12T14:12:38.413Z,98137.88
2023-04-12T14:15:06.969Z,98142.44
2023-04-12T14:17:58.385Z,98130.72
2023-04-12T14:20:29.296Z,98146.59
2023-04-12T14:22:57.960Z,98135.44
2023-04-12T14:25:25.260Z,98143.19
2023-04-12T14:27:52.222Z,98145.69
2023-04-12T14:30:19.357Z,98139.84
2023-04-12T14:32:47.697Z,98139.94
2023-04-12T14:35:14.989Z,98124.97
2023-04-12T14:37:42.354Z,98120.03
2023-04-12T14:40:12.810Z,98124.63
2023-04-12T14:42:39.672Z,98109.38
2023-04-12T14:45:08.557Z,98113.47
2023-04-12T14:47:36.394Z,98114.81
2023-04-12T14:50:03.624Z,98111.03
2023-04-12T14:52:32.315Z,98117.09
2023-04-12T14:55:01.558Z,98110.59
2023-04-12T14:57:29.942Z,98119.59
2023-04-12T14:59:56.860Z,98120.44
2023-04-12T15:02:24.972Z,98131.66
2023-04-12T15:04:52.554Z,98153.16
2023-04-12T15:07:20.399Z,98175.91
2023-04-12T15:09:48.145Z,98198.75
2023-04-12T15:12:16.489Z,98223.44
2023-04-12T15:14:45.678Z,98271.53
2023-04-12T15:17:12.960Z,98281.09
2023-04-12T15:19:40.090Z,98297.59
2023-04-12T15:22:07.184Z,98307.41
2023-04-12T15:24:34.421Z,98305.38
2023-04-12T15:27:05.822Z,98297.16
2023-04-12T15:29:35.898Z,98293.84
2023-04-12T15:32:04.909Z,98292.88
2023-04-12T15:34:31.998Z,98290.50
2023-04-12T15:36:59.118Z,98291.94
2023-04-12T15:39:26.383Z,98294.31
2023-04-12T15:41:53.368Z,98296.53
2023-04-12T15:44:20.275Z,98306.59
2023-04-12T15:46:53.282Z,98305.56
2023-04-12T15:49:33.119Z,98294.03
2023-04-12T15:52:03.083Z,98289.28
2023-04-12T15:54:30.273Z,98291.81
2023-04-12T15:56:59.466Z,98295.47
2023-04-12T15:59:27.846Z,98304.50
2023-04-12T16:01:56.619Z,98302.72
2023-04-12T16:04:24.402Z,98310.06
2023-04-12T16:06:53.084Z,98311.22
2023-04-12T16:09:19.939Z,98308.41
2023-04-12T16:11:46.781Z,98313.91
2023-04-12T16:14:14.014Z,98313.19
2023-04-12T16:16:41.164Z,98321.78
2023-04-12T16:19:08.119Z,98310.53
2023-04-12T16:21:35.055Z,98310.66
2023-04-12T16:24:03.638Z,98300.91
2023-04-12T16:26:32.354Z,98295.91
2023-04-12T16:28:59.453Z,98295.22
2023-04-12T16:31:26.617Z,98307.53
2023-04-12T16:33:54.019Z,98304.91
2023-04-12T16:36:21.110Z,98292.72
2023-04-12T16:38:48.848Z,98304.94
2023-04-12T16:41:17.398Z,98301.38
2023-04-12T16:43:45.553Z,98297.53
2023-04-12T16:46:12.756Z,98305.19
2023-04-12T16:48:40.089Z,98305.16
2023-04-12T16:51:07.377Z,98297.63
2023-04-12T16:53:34.354Z,98287.88
2023-04-12T16:56:01.668Z,98282.19
2023-04-12T16:58:30.323Z,98295.44
2023-04-12T17:00:57.392Z,98287.97
2023-04-12T17:03:24.974Z,98292.25
2023-04-12T17:05:52.602Z,98288.56
2023-04-12T17:08:19.464Z,98294.47
2023-04-12T17:10:46.574Z,98294.97
2023-04-12T17:13:17.818Z,98300.88
2023-04-12T17:15:47.716Z,98310.06
2023-04-12T17:18:14.725Z,98314.75
2023-04-12T17:20:42.086Z,98318.31
2023-04-12T17:23:09.483Z,98331.84
2023-04-12T17:25:36.903Z,98332.50
2023-04-12T17:28:04.173Z,98334.81
2023-04-12T17:30:31.497Z,98341.97
2023-04-12T17:33:00.656Z,98338.72
2023-04-12T17:35:28.395Z,98346.03
2023-04-12T17:37:55.637Z,98352.97
2023-04-12T17:40:22.833Z,98350.09
2023-04-12T17:42:49.646Z,98360.63
2023-04-12T17:45:18.881Z,98359.06
2023-04-12T17:47:45.873Z,98354.88
2023-04-12T17:50:14.663Z,98359.22
2023-04-12T17:52:41.683Z,98367.22
2023-04-12T17:55:10.293Z,98377.69
2023-04-12T17:57:37.482Z,98365.25
2023-04-12T18:00:06.750Z,98344.19
2023-04-12T18:02:39.797Z,98341.56
2023-04-12T18:05:07.929Z,98336.06
2023-04-12T18:07:36.379Z,98327.91
2023-04-12T18:10:03.808Z,98340.47
2023-04-12T18:12:31.116Z,98344.03
2023-04-12T18:14:58.403Z,98333.78
2023-04-12T18:17:26.622Z,98350.19
2023-04-12T18:22:36.895Z,98350.44
2023-04-12T18:25:04.460Z,98356.69
2023-04-12T18:27:31.338Z,98363.72
2023-04-12T18:29:58.466Z,98359.63
2023-04-12T18:32:25.907Z,98350.88
2023-04-12T18:34:52.829Z,98348.19
2023-04-12T18:37:19.704Z,98353.09
2023-04-12T18:39:49.294Z,98364.16
2023-04-12T18:42:17.773Z,98370.72
2023-04-12T18:44:45.622Z,98363.69
2023-04-12T18:47:12.501Z,98373.50
2023-04-12T18:49:39.410Z,98377.13
2023-04-12T18:52:06.438Z,98383.34
2023-04-12T18:54:33.551Z,98378.44
2023-04-12T18:57:02.110Z,98393.53
2023-04-12T18:59:29.719Z,98397.50
2023-04-12T19:01:57.082Z,98408.50
2023-04-12T19:04:24.125Z,98420.34
2023-04-12T19:06:51.768Z,98407.94
2023-04-12T19:09:19.079Z,98398.94
2023-04-12T19:11:45.979Z,98399.97
2023-04-12T19:14:14.482Z,98399.09
2023-04-12T19:16:41.417Z,98404.47
2023-04-12T19:19:08.692Z,98423.72
2023-04-12T19:21:35.690Z,98423.97
2023-04-12T19:24:02.819Z,98429.38
2023-04-12T19:26:29.689Z,98427.16
2023-04-12T19:28:56.689Z,98420.13
2023-04-12T19:31:25.259Z,98419.56
2023-04-12T19:33:55.303Z,98420.19
2023-04-12T19:36:22.637Z,98422.09
2023-04-12T19:38:49.563Z,98422.66
2023-04-12T19:41:17.614Z,98438.28
2023-04-12T19:43:44.686Z,98443.22
2023-04-12T19:46:11.855Z,98447.53
2023-04-12T19:49:05.645Z,98447.53
2023-04-12T19:51:33.304Z,98456.25
2023-04-12T19:54:00.659Z,98445.16
2023-04-12T19:56:28.518Z,98442.22
2023-04-12T19:58:55.615Z,98442.94
2023-04-12T20:01:22.793Z,98445.63
2023-04-12T20:03:49.711Z,98450.44
2023-04-12T20:06:18.013Z,98448.97
2023-04-12T20:08:45.234Z,98444.38
2023-04-12T20:11:12.337Z,98434.56
2023-04-12T20:13:39.209Z,98444.88
2023-04-12T20:16:07.082Z,98436.19
2023-04-12T20:18:34.022Z,98440.50
2023-04-12T20:21:00.881Z,98446.50
2023-04-12T20:23:29.102Z,98454.34
2023-04-12T20:25:56.773Z,98473.00
2023-04-12T20:28:23.810Z,98545.81
2023-04-12T20:30:50.809Z,98548.22
2023-04-12T20:33:17.948Z,98571.16
2023-04-12T20:35:45.182Z,98576.22
2023-04-12T20:38:12.654Z,98579.75
2023-04-12T20:40:41.483Z,98556.56
2023-04-12T20:43:08.738Z,98551.25
2023-04-12T20:45:35.698Z,98536.16
2023-04-12T20:48:02.712Z,98522.63
2023-04-12T20:50:30.003Z,98511.19
2023-04-12T20:52:57.134Z,98512.84
2023-04-12T20:55:24.773Z,98519.19
2023-04-12T20:57:53.424Z,98518.19
2023-04-12T21:00:21.611Z,98532.41
2023-04-12T21:02:49.012Z,98533.25
2023-04-12T21:05:17.114Z,98546.50
2023-04-12T21:07:44.204Z,98543.25
2023-04-12T21:10:12.061Z,98544.34
2023-04-12T21:12:40.228Z,98549.50
2023-04-12T21:15:11.490Z,98548.94
2023-04-12T21:17:39.718Z,98549.63
2023-04-12T21:20:08.252Z,98544.66
2023-04-12T21:22:35.572Z,98535.94
2023-04-12T21:25:02.618Z,98548.03
2023-04-12T21:27:29.772Z,98551.31
2023-04-12T21:29:56.820Z,98553.78
2023-04-12T21:32:25.474Z,98551.66
2023-04-12T21:34:52.457Z,98541.84
2023-04-12T21:37:19.495Z,98541.84
2023-04-12T21:39:46.749Z,98541.72
2023-04-12T21:42:13.933Z,98546.03
2023-04-12T21:44:41.737Z,98547.31
2023-04-12T21:47:09.029Z,98563.94
2023-04-12T21:49:37.728Z,98565.69
2023-04-12T21:52:04.996Z,98582.22
2023-04-12T21:54:32.268Z,98586.44
2023-04-12T21:57:01.551Z,98591.66
2023-04-12T21:59:28.776Z,98605.22
2023-04-12T22:01:56.022Z,98603.91
2023-04-12T22:04:23.280Z,98610.63
2023-04-12T22:06:51.679Z,98608.66
2023-04-12T22:09:18.875Z,98626.16
2023-04-12T22:11:45.899Z,98613.00
2023-04-12T22:14:13.186Z,98617.38
2023-04-12T22:16:40.613Z,98618.06
2023-04-12T22:19:10.830Z,98625.31
2023-04-12T22:21:40.743Z,98626.72
2023-04-12T22:24:09.328Z,98626.38
2023-04-12T22:26:36.376Z,98621.84
2023-04-12T22:29:03.537Z,98632.63
2023-04-12T22:31:30.921Z,98642.84
2023-04-12T22:33:58.686Z,98637.22
2023-04-12T22:36:28.491Z,98631.94
2023-04-12T22:38:56.493Z,98632.84
2023-04-12T22:41:25.102Z,98627.00
2023-04-12T22:43:52.053Z,98632.53
2023-04-12T22:46:19.285Z,98639.22
2023-04-12T22:48:47.139Z,98635.31
2023-04-12T22:51:14.814Z,98641.31
2023-04-12T22:53:41.954Z,98648.56
2023-04-12T22:56:09.105Z,98642.25
2023-04-12T22:58:37.736Z,98638.47
2023-04-12T23:01:05.516Z,98655.50
2023-04-12T23:03:32.845Z,98644.63
2023-04-12T23:05:59.899Z,98657.06
2023-04-12T23:08:26.946Z,98655.19
2023-04-12T23:10:54.009Z,98649.13
2023-04-12T23:13:21.354Z,98649.13
2023-04-12T23:15:49.925Z,98656.13
2023-04-12T23:18:16.925Z,98656.59
2023-04-12T23:20:43.921Z,98658.13
2023-04-12T23:23:10.876Z,98658.50
2023-04-12T23:28:24.262Z,98654.09
2023-04-12T23:30:52.776Z,98656.97
2023-04-12T23:33:21.788Z,98655.38
2023-04-12T23:35:51.127Z,98641.69
2023-04-12T23:38:18.419Z,98637.00
2023-04-12T23:40:46.259Z,98622.38
2023-04-12T23:43:13.650Z,98615.84
2023-04-12T23:45:40.620Z,98618.53
2023-04-12T23:48:09.133Z,98621.22
2023-04-12T23:50:36.555Z,98613.59
2023-04-12T23:53:04.925Z,98614.53
2023-04-12T23:55:32.141Z,98619.22
2023-04-12T23:57:59.174Z,98620.44
